sensor_id;sensor_type;location;lat;lon;timestamp;pressure;altitude;pressure_sealevel;temperature;humidity
52441;BME280;39611;46.062;8.950;2023-03-23T00:00:52;96372.44;;;11.80;66.38
52441;BME280;39611;46.062;8.950;2023-03-23T00:03:19;96365.84;;;11.77;67.14
52441;BME280;39611;46.062;8.950;2023-03-23T00:05:47;96364.66;;;11.65;67.84
52441;BME280;39611;46.062;8.950;2023-03-23T00:08:24;96366.34;;;11.55;67.16
52441;BME280;39611;46.062;8.950;2023-03-23T00:10:52;96367.75;;;11.72;66.28
52441;BME280;39611;46.062;8.950;2023-03-23T00:13:25;96366.41;;;11.74;67.31
52441;BME280;39611;46.062;8.950;2023-03-23T00:15:50;96374.25;;;11.61;68.34
52441;BME280;39611;46.062;8.950;2023-03-23T00:18:20;96373.72;;;11.58;67.82
52441;BME280;39611;46.062;8.950;2023-03-23T00:20:52;96366.00;;;11.62;67.69
52441;BME280;39611;46.062;8.950;2023-03-23T00:23:19;96364.16;;;11.63;67.82
52441;BME280;39611;46.062;8.950;2023-03-23T00:25:53;96364.78;;;11.54;68.32
52441;BME280;39611;46.062;8.950;2023-03-23T00:28:22;96372.59;;;11.65;67.78
52441;BME280;39611;46.062;8.950;2023-03-23T00:31:02;96363.97;;;11.54;69.30
52441;BME280;39611;46.062;8.950;2023-03-23T00:33:31;96362.13;;;11.54;68.94
52441;BME280;39611;46.062;8.950;2023-03-23T00:36:04;96357.22;;;11.67;68.73
52441;BME280;39611;46.062;8.950;2023-03-23T00:38:30;96360.69;;;11.62;68.66
52441;BME280;39611;46.062;8.950;2023-03-23T00:40:56;96361.28;;;11.59;68.91
52441;BME280;39611;46.062;8.950;2023-03-23T00:43:23;96357.91;;;11.53;69.52
52441;BME280;39611;46.062;8.950;2023-03-23T00:45:50;96355.19;;;11.58;69.10
52441;BME280;39611;46.062;8.950;2023-03-23T00:48:24;96355.09;;;11.45;69.84
52441;BME280;39611;46.062;8.950;2023-03-23T00:50:51;96347.41;;;11.43;69.42
52441;BME280;39611;46.062;8.950;2023-03-23T00:53:17;96355.66;;;11.42;70.26
52441;BME280;39611;46.062;8.950;2023-03-23T00:55:44;96355.41;;;11.38;69.40
52441;BME280;39611;46.062;8.950;2023-03-23T00:58:10;96352.19;;;11.41;69.22
52441;BME280;39611;46.062;8.950;2023-03-23T01:00:36;96347.66;;;11.47;68.88
52441;BME280;39611;46.062;8.950;2023-03-23T01:03:02;96351.09;;;11.47;68.60
52441;BME280;39611;46.062;8.950;2023-03-23T01:05:27;96346.31;;;11.49;69.08
52441;BME280;39611;46.062;8.950;2023-03-23T01:07:59;96341.78;;;11.50;69.45
52441;BME280;39611;46.062;8.950;2023-03-23T01:10:25;96338.84;;;11.51;69.39
52441;BME280;39611;46.062;8.950;2023-03-23T01:12:54;96336.88;;;11.38;70.16
52441;BME280;39611;46.062;8.950;2023-03-23T01:15:20;96330.72;;;11.43;69.07
52441;BME280;39611;46.062;8.950;2023-03-23T01:17:47;96328.66;;;11.40;70.65
52441;BME280;39611;46.062;8.950;2023-03-23T01:20:14;96323.06;;;11.41;70.24
52441;BME280;39611;46.062;8.950;2023-03-23T01:22:41;96328.91;;;11.38;70.13
52441;BME280;39611;46.062;8.950;2023-03-23T01:25:08;96321.53;;;11.35;70.04
52441;BME280;39611;46.062;8.950;2023-03-23T01:27:35;96318.88;;;11.35;69.69
52441;BME280;39611;46.062;8.950;2023-03-23T01:30:01;96322.31;;;11.35;68.87
52441;BME280;39611;46.062;8.950;2023-03-23T01:32:27;96314.06;;;11.42;69.50
52441;BME280;39611;46.062;8.950;2023-03-23T01:34:52;96307.69;;;11.43;69.22
52441;BME280;39611;46.062;8.950;2023-03-23T01:37:18;96307.09;;;11.46;69.03
52441;BME280;39611;46.062;8.950;2023-03-23T01:39:45;96303.41;;;11.47;69.89
52441;BME280;39611;46.062;8.950;2023-03-23T01:42:11;96306.69;;;11.39;69.89
52441;BME280;39611;46.062;8.950;2023-03-23T01:47:02;96308.50;;;11.38;70.58
52441;BME280;39611;46.062;8.950;2023-03-23T01:49:33;96304.63;;;11.31;71.09
52441;BME280;39611;46.062;8.950;2023-03-23T01:52:07;96308.34;;;11.30;70.82
52441;BME280;39611;46.062;8.950;2023-03-23T01:54:34;96310.38;;;11.38;69.71
52441;BME280;39611;46.062;8.950;2023-03-23T01:57:04;96300.81;;;11.42;69.50
52441;BME280;39611;46.062;8.950;2023-03-23T01:59:33;96295.28;;;11.38;70.63
52441;BME280;39611;46.062;8.950;2023-03-23T02:02:00;96299.53;;;11.40;69.80
52441;BME280;39611;46.062;8.950;2023-03-23T02:04:27;96301.28;;;11.49;69.00
52441;BME280;39611;46.062;8.950;2023-03-23T02:06:54;96295.31;;;11.33;71.58
52441;BME280;39611;46.062;8.950;2023-03-23T02:09:21;96287.94;;;11.30;71.59
52441;BME280;39611;46.062;8.950;2023-03-23T02:11:48;96289.25;;;11.33;71.64
52441;BME280;39611;46.062;8.950;2023-03-23T02:14:15;96288.47;;;11.32;70.56
52441;BME280;39611;46.062;8.950;2023-03-23T02:24:57;96289.72;;;11.40;71.19
52441;BME280;39611;46.062;8.950;2023-03-23T02:27:43;96283.38;;;11.36;71.17
52441;BME280;39611;46.062;8.950;2023-03-23T02:33:26;96278.72;;;11.28;71.42
52441;BME280;39611;46.062;8.950;2023-03-23T02:36:32;96281.41;;;11.23;71.88
52441;BME280;39611;46.062;8.950;2023-03-23T02:41:44;96281.94;;;11.25;71.58
52441;BME280;39611;46.062;8.950;2023-03-23T02:44:12;96277.19;;;11.22;71.58
52441;BME280;39611;46.062;8.950;2023-03-23T02:46:39;96272.91;;;11.26;71.81
52441;BME280;39611;46.062;8.950;2023-03-23T02:49:06;96290.59;;;11.30;71.46
52441;BME280;39611;46.062;8.950;2023-03-23T02:51:34;96284.72;;;11.33;71.49
52441;BME280;39611;46.062;8.950;2023-03-23T02:54:02;96282.72;;;11.25;70.94
52441;BME280;39611;46.062;8.950;2023-03-23T02:56:29;96279.78;;;11.27;71.07
52441;BME280;39611;46.062;8.950;2023-03-23T02:58:56;96279.78;;;11.27;71.26
52441;BME280;39611;46.062;8.950;2023-03-23T03:03:50;96278.13;;;11.07;73.49
52441;BME280;39611;46.062;8.950;2023-03-23T03:11:38;96279.94;;;11.11;72.41
52441;BME280;39611;46.062;8.950;2023-03-23T03:14:13;96284.72;;;11.09;72.65
52441;BME280;39611;46.062;8.950;2023-03-23T03:17:07;96282.59;;;11.11;72.35
52441;BME280;39611;46.062;8.950;2023-03-23T03:19:40;96292.16;;;11.07;72.53
52441;BME280;39611;46.062;8.950;2023-03-23T03:22:07;96296.91;;;11.10;72.22
52441;BME280;39611;46.062;8.950;2023-03-23T03:24:34;96294.28;;;11.10;72.34
52441;BME280;39611;46.062;8.950;2023-03-23T03:27:04;96289.47;;;11.12;72.57
52441;BME280;39611;46.062;8.950;2023-03-23T03:29:38;96289.25;;;11.09;72.74
52441;BME280;39611;46.062;8.950;2023-03-23T03:32:10;96292.09;;;11.12;72.79
52441;BME280;39611;46.062;8.950;2023-03-23T03:34:37;96294.81;;;11.07;73.04
52441;BME280;39611;46.062;8.950;2023-03-23T03:37:04;96303.31;;;11.04;73.83
52441;BME280;39611;46.062;8.950;2023-03-23T03:39:34;96296.50;;;10.98;73.74
52441;BME280;39611;46.062;8.950;2023-03-23T03:42:00;96299.97;;;10.93;73.41
52441;BME280;39611;46.062;8.950;2023-03-23T03:44:25;96301.22;;;11.01;72.61
52441;BME280;39611;46.062;8.950;2023-03-23T03:46:51;96306.47;;;11.06;73.08
52441;BME280;39611;46.062;8.950;2023-03-23T03:49:17;96306.75;;;11.05;73.06
52441;BME280;39611;46.062;8.950;2023-03-23T03:51:42;96305.44;;;11.02;72.01
52441;BME280;39611;46.062;8.950;2023-03-23T03:54:08;96302.25;;;11.05;71.41
52441;BME280;39611;46.062;8.950;2023-03-23T03:56:33;96302.84;;;10.97;73.88
52441;BME280;39611;46.062;8.950;2023-03-23T03:59:02;96309.47;;;10.94;73.95
52441;BME280;39611;46.062;8.950;2023-03-23T04:01:27;96303.88;;;11.01;73.04
52441;BME280;39611;46.062;8.950;2023-03-23T04:03:54;96305.13;;;11.09;72.64
52441;BME280;39611;46.062;8.950;2023-03-23T04:06:20;96302.44;;;11.14;72.05
52441;BME280;39611;46.062;8.950;2023-03-23T04:08:45;96297.09;;;11.19;70.83
52441;BME280;39611;46.062;8.950;2023-03-23T04:11:12;96301.59;;;11.19;72.80
52441;BME280;39611;46.062;8.950;2023-03-23T04:13:39;96302.22;;;11.10;73.31
52441;BME280;39611;46.062;8.950;2023-03-23T04:16:05;96309.38;;;11.05;74.24
52441;BME280;39611;46.062;8.950;2023-03-23T04:18:31;96308.84;;;11.08;73.44
52441;BME280;39611;46.062;8.950;2023-03-23T04:20:58;96312.03;;;11.05;74.22
52441;BME280;39611;46.062;8.950;2023-03-23T04:23:25;96312.34;;;11.03;74.10
52441;BME280;39611;46.062;8.950;2023-03-23T04:25:52;96317.63;;;11.03;73.23
52441;BME280;39611;46.062;8.950;2023-03-23T04:28:22;96316.97;;;11.17;72.60
52441;BME280;39611;46.062;8.950;2023-03-23T04:30:49;96314.28;;;11.22;72.51
52441;BME280;39611;46.062;8.950;2023-03-23T04:33:19;96308.63;;;11.28;72.12
52441;BME280;39611;46.062;8.950;2023-03-23T04:35:45;96309.97;;;11.26;73.43
52441;BME280;39611;46.062;8.950;2023-03-23T04:38:15;96316.44;;;11.14;74.71
52441;BME280;39611;46.062;8.950;2023-03-23T04:40:42;96318.03;;;11.15;74.08
52441;BME280;39611;46.062;8.950;2023-03-23T04:43:08;96317.38;;;11.29;73.17
52441;BME280;39611;46.062;8.950;2023-03-23T04:45:35;96319.22;;;11.28;73.38
52441;BME280;39611;46.062;8.950;2023-03-23T04:48:03;96314.72;;;11.29;74.52
52441;BME280;39611;46.062;8.950;2023-03-23T04:50:32;96312.63;;;11.26;74.96
52441;BME280;39611;46.062;8.950;2023-03-23T04:53:02;96311.00;;;11.30;74.50
52441;BME280;39611;46.062;8.950;2023-03-23T04:55:32;96312.09;;;11.29;75.24
52441;BME280;39611;46.062;8.950;2023-03-23T04:58:05;96320.03;;;11.29;74.59
52441;BME280;39611;46.062;8.950;2023-03-23T05:00:34;96319.50;;;11.27;74.53
52441;BME280;39611;46.062;8.950;2023-03-23T05:03:00;96318.44;;;11.28;74.39
52441;BME280;39611;46.062;8.950;2023-03-23T05:05:27;96317.53;;;11.37;73.67
52441;BME280;39611;46.062;8.950;2023-03-23T05:07:54;96317.75;;;11.41;73.43
52441;BME280;39611;46.062;8.950;2023-03-23T05:10:21;96309.81;;;11.41;73.06
52441;BME280;39611;46.062;8.950;2023-03-23T05:12:46;96305.59;;;11.40;73.31
52441;BME280;39611;46.062;8.950;2023-03-23T05:15:13;96307.06;;;11.27;72.86
52441;BME280;39611;46.062;8.950;2023-03-23T05:17:39;96316.25;;;11.35;72.56
52441;BME280;39611;46.062;8.950;2023-03-23T05:20:13;96312.34;;;11.27;74.59
52441;BME280;39611;46.062;8.950;2023-03-23T05:22:40;96301.44;;;11.34;73.38
52441;BME280;39611;46.062;8.950;2023-03-23T05:25:06;96306.78;;;11.29;74.90
52441;BME280;39611;46.062;8.950;2023-03-23T05:27:35;96300.50;;;11.20;74.55
52441;BME280;39611;46.062;8.950;2023-03-23T05:30:00;96298.59;;;11.25;72.62
52441;BME280;39611;46.062;8.950;2023-03-23T05:32:27;96296.19;;;11.29;72.34
52441;BME280;39611;46.062;8.950;2023-03-23T05:34:55;96301.66;;;11.37;72.47
52441;BME280;39611;46.062;8.950;2023-03-23T05:37:22;96303.56;;;11.32;74.40
52441;BME280;39611;46.062;8.950;2023-03-23T05:39:47;96294.59;;;11.28;74.87
52441;BME280;39611;46.062;8.950;2023-03-23T05:42:13;96298.84;;;11.29;73.86
52441;BME280;39611;46.062;8.950;2023-03-23T05:44:38;96288.41;;;11.37;73.43
52441;BME280;39611;46.062;8.950;2023-03-23T05:47:04;96283.31;;;11.41;73.78
52441;BME280;39611;46.062;8.950;2023-03-23T05:49:29;96287.00;;;11.45;73.30
52441;BME280;39611;46.062;8.950;2023-03-23T05:51:54;96284.88;;;11.47;73.72
52441;BME280;39611;46.062;8.950;2023-03-23T05:54:20;96280.09;;;11.49;72.66
52441;BME280;39611;46.062;8.950;2023-03-23T05:56:45;96288.03;;;11.49;73.31
52441;BME280;39611;46.062;8.950;2023-03-23T05:59:11;96280.63;;;11.46;74.20
52441;BME280;39611;46.062;8.950;2023-03-23T06:01:37;96279.63;;;11.42;74.61
52441;BME280;39611;46.062;8.950;2023-03-23T06:04:03;96278.97;;;11.31;75.71
52441;BME280;39611;46.062;8.950;2023-03-23T06:06:29;96287.56;;;11.42;74.29
52441;BME280;39611;46.062;8.950;2023-03-23T06:08:56;96289.31;;;11.52;75.12
52441;BME280;39611;46.062;8.950;2023-03-23T06:11:23;96285.91;;;11.46;76.40
52441;BME280;39611;46.062;8.950;2023-03-23T06:13:49;96292.03;;;11.47;76.09
52441;BME280;39611;46.062;8.950;2023-03-23T06:16:15;96285.19;;;11.41;76.10
52441;BME280;39611;46.062;8.950;2023-03-23T06:18:40;96292.09;;;11.42;75.29
52441;BME280;39611;46.062;8.950;2023-03-23T06:21:07;96295.84;;;11.59;73.07
52441;BME280;39611;46.062;8.950;2023-03-23T06:23:34;96301.16;;;11.59;73.34
52441;BME280;39611;46.062;8.950;2023-03-23T06:26:02;96300.00;;;11.66;73.51
52441;BME280;39611;46.062;8.950;2023-03-23T06:28:29;96301.44;;;11.58;73.07
52441;BME280;39611;46.062;8.950;2023-03-23T06:30:54;96301.38;;;11.63;74.28
52441;BME280;39611;46.062;8.950;2023-03-23T06:33:20;96312.81;;;11.58;75.06
52441;BME280;39611;46.062;8.950;2023-03-23T06:35:45;96310.09;;;11.64;75.22
52441;BME280;39611;46.062;8.950;2023-03-23T06:38:11;96315.66;;;11.62;74.92
52441;BME280;39611;46.062;8.950;2023-03-23T06:40:37;96318.03;;;11.64;74.52
52441;BME280;39611;46.062;8.950;2023-03-23T06:43:03;96321.78;;;11.63;74.34
52441;BME280;39611;46.062;8.950;2023-03-23T06:45:30;96328.13;;;11.62;75.30
52441;BME280;39611;46.062;8.950;2023-03-23T06:47:56;96333.81;;;11.74;75.18
52441;BME280;39611;46.062;8.950;2023-03-23T06:50:21;96328.41;;;11.84;74.20
52441;BME280;39611;46.062;8.950;2023-03-23T06:52:49;96336.31;;;11.89;75.29
52441;BME280;39611;46.062;8.950;2023-03-23T06:55:15;96335.53;;;11.89;73.10
52441;BME280;39611;46.062;8.950;2023-03-23T06:57:42;96330.75;;;12.10;69.19
52441;BME280;39611;46.062;8.950;2023-03-23T07:00:11;96340.78;;;12.32;68.42
52441;BME280;39611;46.062;8.950;2023-03-23T07:02:39;96339.69;;;12.71;68.53
52441;BME280;39611;46.062;8.950;2023-03-23T07:05:05;96341.69;;;13.25;65.74
52441;BME280;39611;46.062;8.950;2023-03-23T07:07:30;96337.63;;;13.74;62.48
52441;BME280;39611;46.062;8.950;2023-03-23T07:09:56;96340.78;;;13.76;60.37
52441;BME280;39611;46.062;8.950;2023-03-23T07:12:22;96342.44;;;14.00;59.29
52441;BME280;39611;46.062;8.950;2023-03-23T07:14:47;96347.88;;;13.95;61.20
52441;BME280;39611;46.062;8.950;2023-03-23T07:17:13;96356.66;;;13.82;61.63
52441;BME280;39611;46.062;8.950;2023-03-23T07:19:38;96357.81;;;13.62;63.47
52441;BME280;39611;46.062;8.950;2023-03-23T07:22:05;96352.00;;;13.46;64.10
52441;BME280;39611;46.062;8.950;2023-03-23T07:24:31;96355.44;;;13.32;62.52
52441;BME280;39611;46.062;8.950;2023-03-23T07:26:56;96362.75;;;13.22;64.27
52441;BME280;39611;46.062;8.950;2023-03-23T07:29:23;96373.28;;;13.13;65.86
52441;BME280;39611;46.062;8.950;2023-03-23T07:31:48;96370.19;;;13.06;65.93
52441;BME280;39611;46.062;8.950;2023-03-23T07:34:13;96365.13;;;12.90;65.19
52441;BME280;39611;46.062;8.950;2023-03-23T07:36:40;96365.50;;;12.84;64.39
52441;BME280;39611;46.062;8.950;2023-03-23T07:39:05;96374.44;;;12.74;65.92
52441;BME280;39611;46.062;8.950;2023-03-23T07:41:32;96367.81;;;12.72;67.00
52441;BME280;39611;46.062;8.950;2023-03-23T07:43:58;96368.25;;;12.60;70.74
52441;BME280;39611;46.062;8.950;2023-03-23T07:46:23;96369.09;;;12.55;69.73
52441;BME280;39611;46.062;8.950;2023-03-23T07:48:48;96369.41;;;12.54;69.93
52441;BME280;39611;46.062;8.950;2023-03-23T07:51:14;96370.53;;;12.48;71.19
52441;BME280;39611;46.062;8.950;2023-03-23T07:53:42;96373.69;;;12.50;71.68
52441;BME280;39611;46.062;8.950;2023-03-23T07:56:11;96386.63;;;12.56;70.58
52441;BME280;39611;46.062;8.950;2023-03-23T07:58:37;96381.25;;;12.61;70.88
52441;BME280;39611;46.062;8.950;2023-03-23T08:01:03;96378.72;;;12.70;69.39
52441;BME280;39611;46.062;8.950;2023-03-23T08:03:29;96375.22;;;12.75;67.10
52441;BME280;39611;46.062;8.950;2023-03-23T08:05:57;96385.16;;;12.83;65.50
52441;BME280;39611;46.062;8.950;2023-03-23T08:08:24;96375.75;;;12.90;64.27
52441;BME280;39611;46.062;8.950;2023-03-23T08:10:50;96380.41;;;12.99;62.89
52441;BME280;39611;46.062;8.950;2023-03-23T08:13:15;96380.81;;;13.06;61.95
52441;BME280;39611;46.062;8.950;2023-03-23T08:15:40;96380.66;;;13.16;63.03
52441;BME280;39611;46.062;8.950;2023-03-23T08:18:07;96380.56;;;13.21;62.64
52441;BME280;39611;46.062;8.950;2023-03-23T08:20:33;96382.09;;;13.27;61.45
52441;BME280;39611;46.062;8.950;2023-03-23T08:22:59;96382.50;;;13.35;61.52
52441;BME280;39611;46.062;8.950;2023-03-23T08:25:25;96380.16;;;13.47;62.20
52441;BME280;39611;46.062;8.950;2023-03-23T08:27:52;96392.06;;;13.49;62.36
52441;BME280;39611;46.062;8.950;2023-03-23T08:30:19;96389.03;;;13.56;62.58
52441;BME280;39611;46.062;8.950;2023-03-23T08:32:45;96395.84;;;13.62;61.27
52441;BME280;39611;46.062;8.950;2023-03-23T08:35:12;96402.63;;;13.68;60.32
52441;BME280;39611;46.062;8.950;2023-03-23T08:37:39;96393.97;;;13.76;60.34
52441;BME280;39611;46.062;8.950;2023-03-23T08:40:10;96394.66;;;13.82;60.19
52441;BME280;39611;46.062;8.950;2023-03-23T08:42:40;96392.97;;;13.86;59.98
52441;BME280;39611;46.062;8.950;2023-03-23T08:45:07;96394.28;;;13.89;59.55
52441;BME280;39611;46.062;8.950;2023-03-23T08:47:34;96387.75;;;13.95;58.93
52441;BME280;39611;46.062;8.950;2023-03-23T08:50:00;96392.28;;;13.94;58.73
52441;BME280;39611;46.062;8.950;2023-03-23T08:52:27;96392.97;;;14.00;57.61
52441;BME280;39611;46.062;8.950;2023-03-23T08:54:54;96386.59;;;14.01;59.38
52441;BME280;39611;46.062;8.950;2023-03-23T08:57:19;96387.38;;;14.02;60.09
52441;BME280;39611;46.062;8.950;2023-03-23T08:59:45;96389.63;;;14.08;60.59
52441;BME280;39611;46.062;8.950;2023-03-23T09:02:11;96387.94;;;14.12;59.98
52441;BME280;39611;46.062;8.950;2023-03-23T09:04:39;96378.59;;;14.15;60.09
52441;BME280;39611;46.062;8.950;2023-03-23T09:07:05;96379.88;;;14.17;59.56
52441;BME280;39611;46.062;8.950;2023-03-23T09:09:31;96388.25;;;14.25;58.71
52441;BME280;39611;46.062;8.950;2023-03-23T09:11:58;96381.44;;;14.32;59.66
52441;BME280;39611;46.062;8.950;2023-03-23T09:14:23;96372.25;;;14.38;60.90
52441;BME280;39611;46.062;8.950;2023-03-23T09:16:48;96374.50;;;14.45;60.57
52441;BME280;39611;46.062;8.950;2023-03-23T09:19:14;96376.47;;;14.53;59.82
52441;BME280;39611;46.062;8.950;2023-03-23T09:21:39;96377.75;;;14.56;58.47
52441;BME280;39611;46.062;8.950;2023-03-23T09:24:04;96375.75;;;14.61;57.75
52441;BME280;39611;46.062;8.950;2023-03-23T09:26:31;96372.50;;;14.64;58.82
52441;BME280;39611;46.062;8.950;2023-03-23T09:28:57;96372.38;;;14.70;57.82
52441;BME280;39611;46.062;8.950;2023-03-23T09:31:23;96370.19;;;14.72;57.58
52441;BME280;39611;46.062;8.950;2023-03-23T09:33:52;96374.91;;;14.75;56.73
52441;BME280;39611;46.062;8.950;2023-03-23T09:36:21;96370.09;;;14.77;56.69
52441;BME280;39611;46.062;8.950;2023-03-23T09:38:47;96367.78;;;14.84;55.87
52441;BME280;39611;46.062;8.950;2023-03-23T09:47:03;96369.00;;;15.00;57.20
52441;BME280;39611;46.062;8.950;2023-03-23T09:52:17;96361.38;;;15.07;57.32
52441;BME280;39611;46.062;8.950;2023-03-23T09:54:54;96366.25;;;15.14;56.25
52441;BME280;39611;46.062;8.950;2023-03-23T10:00:21;96361.44;;;15.25;56.30
52441;BME280;39611;46.062;8.950;2023-03-23T10:02:55;96368.13;;;15.36;57.78
52441;BME280;39611;46.062;8.950;2023-03-23T10:05:32;96371.31;;;15.47;55.31
52441;BME280;39611;46.062;8.950;2023-03-23T10:08:00;96369.78;;;15.55;54.91
52441;BME280;39611;46.062;8.950;2023-03-23T10:16:29;96367.31;;;15.67;53.97
52441;BME280;39611;46.062;8.950;2023-03-23T10:19:25;96377.06;;;15.71;54.42
52441;BME280;39611;46.062;8.950;2023-03-23T10:21:50;96376.16;;;15.76;55.92
52441;BME280;39611;46.062;8.950;2023-03-23T10:24:21;96376.16;;;15.76;55.80
52441;BME280;39611;46.062;8.950;2023-03-23T10:27:10;96367.56;;;15.88;51.85
52441;BME280;39611;46.062;8.950;2023-03-23T10:29:40;96362.41;;;16.00;52.14
52441;BME280;39611;46.062;8.950;2023-03-23T10:32:15;96359.75;;;16.00;50.42
52441;BME280;39611;46.062;8.950;2023-03-23T10:34:50;96350.03;;;16.04;51.67
52441;BME280;39611;46.062;8.950;2023-03-23T10:38:11;96343.28;;;16.07;54.03
52441;BME280;39611;46.062;8.950;2023-03-23T10:40:19;96342.66;;;16.10;52.23
52441;BME280;39611;46.062;8.950;2023-03-23T10:42:46;96353.97;;;16.07;51.11
52441;BME280;39611;46.062;8.950;2023-03-23T10:45:17;96345.31;;;16.01;50.41
52441;BME280;39611;46.062;8.950;2023-03-23T10:47:58;96342.66;;;16.01;50.86
52441;BME280;39611;46.062;8.950;2023-03-23T10:50:30;96336.22;;;16.02;51.44
52441;BME280;39611;46.062;8.950;2023-03-23T10:52:58;96328.34;;;15.97;51.95
52441;BME280;39611;46.062;8.950;2023-03-23T10:55:35;96334.47;;;15.98;51.85
52441;BME280;39611;46.062;8.950;2023-03-23T10:58:09;96325.88;;;16.09;52.06
52441;BME280;39611;46.062;8.950;2023-03-23T11:00:46;96323.84;;;16.06;50.44
52441;BME280;39611;46.062;8.950;2023-03-23T11:05:47;96327.47;;;16.19;51.21
52441;BME280;39611;46.062;8.950;2023-03-23T11:08:19;96327.63;;;16.23;49.67
52441;BME280;39611;46.062;8.950;2023-03-23T11:10:49;96326.38;;;16.20;49.84
52441;BME280;39611;46.062;8.950;2023-03-23T11:13:17;96323.41;;;16.22;49.41
52441;BME280;39611;46.062;8.950;2023-03-23T11:15:46;96317.09;;;16.17;47.71
52441;BME280;39611;46.062;8.950;2023-03-23T11:18:36;96307.84;;;16.32;47.96
52441;BME280;39611;46.062;8.950;2023-03-23T11:21:03;96313.34;;;16.36;48.60
52441;BME280;39611;46.062;8.950;2023-03-23T11:23:38;96308.47;;;16.29;48.51
52441;BME280;39611;46.062;8.950;2023-03-23T11:28:43;96302.19;;;16.34;47.82
52441;BME280;39611;46.062;8.950;2023-03-23T11:31:10;96299.38;;;16.30;49.81
52441;BME280;39611;46.062;8.950;2023-03-23T11:33:40;96300.00;;;16.27;49.87
52441;BME280;39611;46.062;8.950;2023-03-23T11:36:07;96300.16;;;16.31;50.00
52441;BME280;39611;46.062;8.950;2023-03-23T11:38:34;96292.91;;;16.31;49.24
52441;BME280;39611;46.062;8.950;2023-03-23T11:41:00;96295.13;;;16.47;48.16
52441;BME280;39611;46.062;8.950;2023-03-23T11:43:25;96289.78;;;16.47;47.10
52441;BME280;39611;46.062;8.950;2023-03-23T11:46:17;96289.00;;;16.55;47.23
52441;BME280;39611;46.062;8.950;2023-03-23T11:52:03;96284.28;;;16.60;47.15
52441;BME280;39611;46.062;8.950;2023-03-23T11:54:30;96281.91;;;16.68;50.13
52441;BME280;39611;46.062;8.950;2023-03-23T11:56:57;96281.31;;;16.79;46.52
52441;BME280;39611;46.062;8.950;2023-03-23T11:59:32;96277.19;;;16.91;46.57
52441;BME280;39611;46.062;8.950;2023-03-23T12:05:14;96280.00;;;17.03;46.34
52441;BME280;39611;46.062;8.950;2023-03-23T12:21:43;96268.13;;;17.21;46.50
52441;BME280;39611;46.062;8.950;2023-03-23T12:24:23;96265.97;;;17.15;48.71
52441;BME280;39611;46.062;8.950;2023-03-23T12:27:06;96248.19;;;17.19;48.09
52441;BME280;39611;46.062;8.950;2023-03-23T12:35:12;96246.72;;;17.30;45.32
52441;BME280;39611;46.062;8.950;2023-03-23T12:46:14;96237.25;;;17.33;44.71
52441;BME280;39611;46.062;8.950;2023-03-23T12:48:46;96224.06;;;17.36;43.99
52441;BME280;39611;46.062;8.950;2023-03-23T12:51:19;96221.88;;;17.30;44.94
52441;BME280;39611;46.062;8.950;2023-03-23T12:53:52;96228.00;;;17.30;44.86
52441;BME280;39611;46.062;8.950;2023-03-23T12:56:29;96218.56;;;17.33;44.46
52441;BME280;39611;46.062;8.950;2023-03-23T12:59:03;96206.25;;;17.40;47.20
52441;BME280;39611;46.062;8.950;2023-03-23T13:01:36;96207.97;;;17.45;45.74
52441;BME280;39611;46.062;8.950;2023-03-23T13:04:11;96208.25;;;17.52;45.39
52441;BME280;39611;46.062;8.950;2023-03-23T13:06:41;96203.19;;;17.51;44.57
52441;BME280;39611;46.062;8.950;2023-03-23T13:09:16;96198.78;;;17.55;44.56
52441;BME280;39611;46.062;8.950;2023-03-23T13:11:43;96199.38;;;17.60;45.01
52441;BME280;39611;46.062;8.950;2023-03-23T13:17:10;96202.88;;;17.52;46.87
52441;BME280;39611;46.062;8.950;2023-03-23T13:22:33;96201.97;;;17.48;47.58
52441;BME280;39611;46.062;8.950;2023-03-23T13:25:18;96204.31;;;17.50;46.38
52441;BME280;39611;46.062;8.950;2023-03-23T13:27:56;96206.94;;;17.58;46.55
52441;BME280;39611;46.062;8.950;2023-03-23T13:30:22;96204.97;;;17.46;46.15
52441;BME280;39611;46.062;8.950;2023-03-23T13:32:51;96193.69;;;17.41;47.27
52441;BME280;39611;46.062;8.950;2023-03-23T13:35:19;96196.34;;;17.41;46.52
52441;BME280;39611;46.062;8.950;2023-03-23T13:37:51;96193.94;;;17.48;45.25
52441;BME280;39611;46.062;8.950;2023-03-23T13:40:25;96186.38;;;17.50;44.51
52441;BME280;39611;46.062;8.950;2023-03-23T13:42:57;96184.63;;;17.54;45.17
52441;BME280;39611;46.062;8.950;2023-03-23T13:48:20;96172.06;;;17.76;44.42
52441;BME280;39611;46.062;8.950;2023-03-23T13:50:59;96168.84;;;17.61;46.43
52441;BME280;39611;46.062;8.950;2023-03-23T13:53:43;96165.72;;;17.59;45.84
52441;BME280;39611;46.062;8.950;2023-03-23T13:56:22;96160.38;;;17.59;46.10
52441;BME280;39611;46.062;8.950;2023-03-23T13:59:15;96154.19;;;17.67;45.18
52441;BME280;39611;46.062;8.950;2023-03-23T14:01:41;96158.97;;;17.83;46.31
52441;BME280;39611;46.062;8.950;2023-03-23T14:04:16;96158.41;;;17.68;45.52
52441;BME280;39611;46.062;8.950;2023-03-23T14:06:44;96158.59;;;17.63;46.92
52441;BME280;39611;46.062;8.950;2023-03-23T14:09:26;96165.97;;;17.66;46.50
52441;BME280;39611;46.062;8.950;2023-03-23T14:11:59;96167.66;;;17.71;45.74
52441;BME280;39611;46.062;8.950;2023-03-23T14:14:34;96170.03;;;17.73;46.47
52441;BME280;39611;46.062;8.950;2023-03-23T14:17:06;96158.34;;;17.56;47.29
52441;BME280;39611;46.062;8.950;2023-03-23T14:19:32;96158.53;;;17.51;47.18
52441;BME280;39611;46.062;8.950;2023-03-23T14:22:00;96153.31;;;17.55;45.91
52441;BME280;39611;46.062;8.950;2023-03-23T14:24:31;96149.69;;;17.59;46.59
52441;BME280;39611;46.062;8.950;2023-03-23T14:27:21;96151.22;;;17.60;46.51
52441;BME280;39611;46.062;8.950;2023-03-23T14:30:01;96143.69;;;17.62;47.38
52441;BME280;39611;46.062;8.950;2023-03-23T14:32:28;96148.56;;;17.60;47.16
52441;BME280;39611;46.062;8.950;2023-03-23T14:34:55;96149.69;;;17.59;47.52
52441;BME280;39611;46.062;8.950;2023-03-23T14:37:21;96163.50;;;17.61;47.77
52441;BME280;39611;46.062;8.950;2023-03-23T14:39:49;96160.31;;;17.68;47.55